Time;durP1;ratioP1;P1;durP2;ratioP2;P2;SDS_P1;SDS_P2;PMS_P1;PMS_P2;Temp;Humidity;BMP_temperature;BMP_pressure;BME280_temperature;BME280_humidity;BME280_pressure;Samples;Min_cycle;Max_cycle;Signal;HPM_P1;HPM_P2
2022/01/25 00:08:19;;;;;;;23.35;13.18;;;;;;;-4.36;52.62;95853.38;5027526;28;20176;-74
2022/01/25 00:26:15;;;;;;;19.52;10.20;;;;;;;-4.36;51.84;95858.47;5044680;28;20186;-74
2022/01/25 00:28:20;;;;;;;19.83;11.05;;;;;;;-4.51;51.54;95867.69;5032738;28;20808;-75
2022/01/25 00:31:00;;;;;;;20.02;11.73;;;;;;;-4.14;51.17;95868.47;5036627;28;20191;-76
2022/01/25 00:33:27;;;;;;;16.50;9.13;;;;;;;-4.27;51.26;95869.16;5040729;28;20184;-75
2022/01/25 00:35:53;;;;;;;14.50;8.60;;;;;;;-4.57;52.11;95860.31;5039666;28;20248;-74
2022/01/25 00:38:19;;;;;;;8.52;7.47;;;;;;;-4.13;51.32;95867.59;5028389;28;20212;-75
2022/01/25 00:40:44;;;;;;;6.47;5.93;;;;;;;-4.26;51.23;95865.69;5021527;28;20219;-74
2022/01/25 00:43:10;;;;;;;8.37;7.50;;;;;;;-4.47;52.40;95860.72;5033966;28;20198;-74
2022/01/25 00:45:36;;;;;;;12.37;9.00;;;;;;;-4.18;51.53;95861.03;5034275;28;20184;-75
2022/01/25 00:48:06;;;;;;;13.17;9.97;;;;;;;-4.22;51.61;95859.53;5033892;28;20415;-75
2022/01/25 00:50:38;;;;;;;8.35;7.60;;;;;;;-4.15;51.11;95848.94;5036684;28;20211;-75
2022/01/25 00:55:31;;;;;;;10.93;7.43;;;;;;;-4.24;51.42;95849.38;5053810;28;20187;-74
2022/01/25 00:57:57;;;;;;;10.02;8.50;;;;;;;-4.09;51.54;95849.56;5034668;28;20187;-74
2022/01/25 01:00:24;;;;;;;7.80;6.65;;;;;;;-4.54;52.60;95842.28;5021377;28;20253;-74
2022/01/25 01:02:50;;;;;;;5.10;4.70;;;;;;;-4.43;52.22;95849.44;5023828;28;20180;-74
2022/01/25 01:05:15;;;;;;;6.33;5.73;;;;;;;-4.26;52.00;95845.25;5015531;28;20192;-74
2022/01/25 01:07:42;;;;;;;6.83;5.00;;;;;;;-4.44;52.24;95845.25;5027585;28;20191;-74
2022/01/25 01:10:09;;;;;;;7.85;5.88;;;;;;;-4.17;52.00;95842.28;5035192;28;20271;-74
2022/01/25 01:15:20;;;;;;;11.18;7.43;;;;;;;-4.15;52.21;95840.47;5053445;28;20183;-75
2022/01/25 01:31:49;;;;;;;10.07;6.68;;;;;;;-4.18;52.46;95835.50;5013147;28;20191;-74
2022/01/25 01:39:47;;;;;;;10.38;5.78;;;;;;;-4.86;53.58;95827.66;5015584;28;20540;-74
2022/01/25 01:43:18;;;;;;;7.97;6.90;;;;;;;-5.00;53.68;95828.28;5013404;28;20208;-73
2022/01/25 01:47:50;;;;;;;5.88;5.38;;;;;;;-4.58;53.20;95827.19;5050169;28;20183;-74
2022/01/25 01:50:27;;;;;;;7.88;6.13;;;;;;;-4.61;52.88;95823.06;5032514;28;20231;-74
2022/01/25 01:52:53;;;;;;;7.72;6.20;;;;;;;-4.71;52.59;95827.75;5036446;28;20273;-74
2022/01/25 01:55:20;;;;;;;7.10;6.40;;;;;;;-4.36;51.74;95819.34;5045417;28;20210;-74
2022/01/25 01:57:46;;;;;;;10.38;5.85;;;;;;;-4.97;53.15;95821.31;5049723;28;20421;-73
2022/01/25 02:00:12;;;;;;;15.02;7.22;;;;;;;-4.65;53.33;95826.63;5045971;28;20206;-74
2022/01/25 02:02:39;;;;;;;10.53;8.20;;;;;;;-4.78;53.56;95811.09;5018546;28;20188;-74
2022/01/25 02:05:05;;;;;;;8.30;6.32;;;;;;;-4.63;53.45;95813.81;5029498;28;20450;-74
2022/01/25 02:07:31;;;;;;;10.68;7.97;;;;;;;-4.68;53.58;95805.56;5029346;28;20196;-75
2022/01/25 02:09:56;;;;;;;6.10;5.50;;;;;;;-4.78;53.62;95811.09;5028878;28;20191;-74
2022/01/25 02:12:21;;;;;;;10.37;7.63;;;;;;;-5.00;54.47;95811.25;5013545;28;20239;-74
2022/01/25 02:14:48;;;;;;;10.93;6.80;;;;;;;-4.62;53.59;95811.19;5008538;28;20176;-74
2022/01/25 02:17:40;;;;;;;12.48;7.57;;;;;;;-4.68;53.52;95806.38;5009132;28;20240;-74
2022/01/25 02:22:52;;;;;;;8.73;6.50;;;;;;;-4.83;53.63;95802.00;5010241;28;20180;-75
2022/01/25 02:25:18;;;;;;;11.60;7.70;;;;;;;-4.56;53.04;95794.75;5009237;28;20177;-73
2022/01/25 02:27:43;;;;;;;8.90;6.60;;;;;;;-4.81;53.57;95790.78;5009268;28;20244;-74
2022/01/25 02:30:09;;;;;;;7.80;4.90;;;;;;;-4.91;53.81;95792.97;5025272;28;20218;-74
2022/01/25 02:32:35;;;;;;;5.40;4.88;;;;;;;-4.65;53.30;95793.44;5030501;28;20251;-75
2022/01/25 02:35:02;;;;;;;9.93;7.23;;;;;;;-4.68;53.63;95780.84;5029313;28;20187;-74
2022/01/25 02:37:28;;;;;;;7.03;6.40;;;;;;;-4.95;53.96;95776.16;5029285;28;20188;-74
2022/01/25 02:39:54;;;;;;;8.33;5.70;;;;;;;-4.76;53.32;95781.22;5011720;28;20189;-74
2022/01/25 02:42:20;;;;;;;6.70;6.07;;;;;;;-4.49;52.60;95770.56;4991750;28;20421;-75
2022/01/25 02:44:47;;;;;;;7.05;6.22;;;;;;;-4.61;52.29;95772.00;5008854;28;20177;-74
2022/01/25 02:49:57;;;;;;;8.10;7.15;;;;;;;-4.45;52.34;95769.50;5046748;28;20744;-75
2022/01/25 02:52:23;;;;;;;9.53;7.80;;;;;;;-4.69;52.81;95763.84;5033949;28;20204;-75
2022/01/25 02:54:49;;;;;;;9.03;6.83;;;;;;;-4.72;52.35;95769.13;5028810;28;20255;-75
2022/01/25 02:57:15;;;;;;;6.35;4.75;;;;;;;-4.83;52.82;95761.16;5029740;28;20655;-74
2022/01/25 02:59:40;;;;;;;13.27;7.97;;;;;;;-4.85;53.08;95763.78;5048335;28;20334;-75
2022/01/25 03:02:06;;;;;;;13.40;7.30;;;;;;;-4.77;53.04;95760.84;5015041;28;20242;-74
2022/01/25 03:04:32;;;;;;;10.33;8.67;;;;;;;-4.39;51.78;95755.63;5028514;28;20633;-74
2022/01/25 03:06:58;;;;;;;8.63;7.70;;;;;;;-4.64;52.21;95758.53;5034755;28;20437;-74
2022/01/25 03:09:23;;;;;;;7.63;6.73;;;;;;;-4.86;52.86;95761.28;5048064;28;20414;-75
2022/01/25 03:11:52;;;;;;;10.13;7.67;;;;;;;-4.65;52.57;95760.25;5039116;28;20216;-74
2022/01/25 03:14:20;;;;;;;4.97;4.13;;;;;;;-5.10;53.28;95753.88;5027634;28;20240;-74
2022/01/25 03:17:03;;;;;;;8.48;6.85;;;;;;;-4.60;52.98;95753.19;5020459;28;20191;-73
2022/01/25 03:22:16;;;;;;;9.68;7.68;;;;;;;-4.90;54.16;95758.88;5038993;28;20265;-74
2022/01/25 03:24:42;;;;;;;12.23;7.85;;;;;;;-4.80;54.59;95755.88;5020462;28;20256;-75
2022/01/25 03:27:08;;;;;;;16.00;8.98;;;;;;;-4.39;53.76;95750.50;4991131;28;20237;-76
2022/01/25 03:29:33;;;;;;;13.87;9.60;;;;;;;-4.27;53.36;95755.00;5008647;28;20309;-74
2022/01/25 03:31:59;;;;;;;9.80;7.17;;;;;;;-4.54;54.00;95752.06;5014750;28;20251;-75
2022/01/25 03:34:25;;;;;;;7.37;6.60;;;;;;;-4.37;53.75;95754.63;5020348;28;20183;-74
2022/01/25 03:36:50;;;;;;;15.27;9.07;;;;;;;-4.22;52.99;95758.16;5026397;28;20573;-75
2022/01/25 03:39:16;;;;;;;10.67;8.27;;;;;;;-4.19;53.31;95747.78;5010943;28;20188;-74
2022/01/25 03:41:41;;;;;;;10.03;7.90;;;;;;;-4.39;53.49;95755.63;5008380;28;20197;-75
2022/01/25 03:44:07;;;;;;;8.13;7.27;;;;;;;-4.33;53.24;95750.19;5009194;28;20200;-76
2022/01/25 03:46:59;;;;;;;13.20;9.97;;;;;;;-4.61;53.90;95743.91;5008162;28;20176;-75
2022/01/25 03:52:08;;;;;;;12.50;8.15;;;;;;;-4.57;54.10;95736.88;5022296;28;20218;-75
2022/01/25 03:54:34;;;;;;;11.07;8.03;;;;;;;-4.90;54.78;95738.44;5031094;28;20183;-74
2022/01/25 03:57:00;;;;;;;11.95;8.77;;;;;;;-4.84;54.72;95741.63;5047733;28;20736;-75
2022/01/25 03:59:26;;;;;;;13.60;9.73;;;;;;;-4.79;54.41;95744.78;5030706;28;20204;-74
2022/01/25 04:01:52;;;;;;;6.53;5.90;;;;;;;-5.12;54.85;95745.47;5039845;28;20187;-75
2022/01/25 04:04:21;;;;;;;11.57;8.10;;;;;;;-5.08;55.34;95741.88;5029950;28;20176;-74
2022/01/25 04:06:51;;;;;;;10.60;9.52;;;;;;;-4.94;55.07;95739.50;5047823;28;20172;-75
2022/01/25 04:09:16;;;;;;;8.65;7.72;;;;;;;-4.63;54.67;95738.03;5019300;28;20219;-75
2022/01/25 04:11:42;;;;;;;10.50;8.17;;;;;;;-5.03;55.13;95734.81;5032327;28;20242;-74
2022/01/25 04:14:07;;;;;;;9.40;8.47;;;;;;;-4.87;54.71;95737.50;5027075;28;20184;-76
2022/01/25 04:16:38;;;;;;;11.10;8.03;;;;;;;-4.97;55.25;95739.66;5027581;28;20934;-75
2022/01/25 04:19:28;;;;;;;11.15;8.27;;;;;;;-4.80;54.73;95735.47;5024920;28;20188;-74
2022/01/25 04:24:57;;;;;;;15.05;8.93;;;;;;;-5.11;55.26;95716.50;5047850;28;20175;-74
2022/01/25 04:27:23;;;;;;;11.82;8.48;;;;;;;-5.23;55.28;95723.00;5039144;28;20212;-74
2022/01/25 04:29:51;;;;;;;9.95;8.35;;;;;;;-5.62;56.22;95716.28;5028814;28;20204;-74
2022/01/25 04:32:17;;;;;;;11.25;7.90;;;;;;;-5.59;56.34;95720.44;5010153;28;20208;-74
2022/01/25 04:34:47;;;;;;;12.98;8.48;;;;;;;-5.79;56.23;95709.38;5010381;28;20532;-74
2022/01/25 04:55:50;;;;;;;18.83;12.38;;;;;;;-7.15;60.69;95710.88;5030298;28;20291;-75
2022/01/25 04:58:27;;;;;;;13.40;10.23;;;;;;;-6.98;60.68;95741.59;5028276;28;20192;-74
2022/01/25 05:00:53;;;;;;;13.93;8.25;;;;;;;-7.39;61.46;95725.41;5028402;28;20188;-74
2022/01/25 05:03:25;;;;;;;12.70;6.85;;;;;;;-7.22;61.11;95717.13;5027071;28;20184;-74
2022/01/25 05:06:07;;;;;;;13.48;9.80;;;;;;;-7.47;61.85;95725.69;5037625;28;20188;-74
2022/01/25 05:08:38;;;;;;;16.65;13.02;;;;;;;-8.05;62.75;95729.47;5021159;28;20211;-75
2022/01/25 05:11:10;;;;;;;21.65;10.90;;;;;;;-7.79;62.51;95726.88;5027113;28;20193;-74
2022/01/25 05:19:02;;;;;;;10.00;8.88;;;;;;;-7.66;62.64;95734.00;5020681;28;20181;-75
2022/01/25 05:24:12;;;;;;;20.90;13.07;;;;;;;-7.35;61.50;95722.66;5035663;28;20195;-74
2022/01/25 05:26:37;;;;;;;23.40;12.60;;;;;;;-7.21;61.12;95728.94;5008072;28;20220;-75
2022/01/25 05:29:03;;;;;;;18.10;12.67;;;;;;;-7.13;60.99;95721.81;5007191;28;20236;-75
2022/01/25 05:31:29;;;;;;;14.63;10.70;;;;;;;-7.52;61.63;95717.41;5000866;28;20213;-74
2022/01/25 05:33:54;;;;;;;13.30;10.60;;;;;;;-7.63;62.29;95719.53;4999642;28;20214;-74
2022/01/25 05:36:20;;;;;;;16.00;10.13;;;;;;;-7.20;60.76;95717.88;4996171;28;20189;-74
2022/01/25 05:38:47;;;;;;;14.60;9.50;;;;;;;-7.09;61.18;95708.94;4997334;28;20197;-74
2022/01/25 05:41:13;;;;;;;16.15;11.10;;;;;;;-7.13;61.13;95701.47;4986177;28;20271;-74
2022/01/25 05:46:33;;;;;;;12.57;9.88;;;;;;;-7.23;61.11;95690.84;5005218;28;20209;-74
2022/01/25 05:48:59;;;;;;;14.02;10.80;;;;;;;-7.19;60.72;95694.94;4999846;28;20247;-74
2022/01/25 05:51:24;;;;;;;16.67;10.73;;;;;;;-6.69;59.66;95696.31;5000327;28;20298;-74
2022/01/25 05:53:50;;;;;;;9.37;8.53;;;;;;;-7.03;60.87;95694.34;5002372;28;20220;-74
2022/01/25 05:56:16;;;;;;;15.07;10.70;;;;;;;-6.87;60.40;95698.75;5012793;28;20200;-74
2022/01/25 05:58:55;;;;;;;15.60;10.70;;;;;;;-7.18;60.66;95699.13;5004658;28;20181;-74
2022/01/25 06:01:21;;;;;;;14.25;8.80;;;;;;;-7.38;61.12;95707.56;5001075;28;20196;-74
2022/01/25 06:03:46;;;;;;;14.97;11.97;;;;;;;-7.53;61.42;95706.41;5008600;28;20188;-74
2022/01/25 06:06:12;;;;;;;14.63;10.13;;;;;;;-7.42;62.29;95700.91;5018947;28;20200;-74
2022/01/25 06:08:39;;;;;;;14.25;10.43;;;;;;;-7.74;62.53;95713.13;4987156;28;20648;-74
2022/01/25 06:11:04;;;;;;;15.45;11.20;;;;;;;-7.51;61.62;95711.41;5010660;28;20200;-74
2022/01/25 06:13:30;;;;;;;16.00;8.77;;;;;;;-7.46;61.59;95705.28;5009723;28;20212;-74
2022/01/25 06:15:57;;;;;;;17.20;10.97;;;;;;;-7.44;61.49;95725.56;4985391;28;20424;-74
2022/01/25 06:18:23;;;;;;;16.00;10.35;;;;;;;-7.37;60.30;95716.81;5003121;28;21015;-75
2022/01/25 06:20:48;;;;;;;14.77;10.20;;;;;;;-7.16;60.69;95711.78;4993663;28;20177;-75
2022/01/25 06:23:13;;;;;;;16.80;11.80;;;;;;;-7.24;60.37;95713.81;5010992;28;20236;-74
2022/01/25 06:25:41;;;;;;;21.67;11.63;;;;;;;-6.72;59.19;95716.81;5006351;28;20232;-74
2022/01/25 06:28:07;;;;;;;18.15;11.02;;;;;;;-7.06;60.82;95723.25;5030997;28;20188;-74
2022/01/25 06:30:33;;;;;;;21.60;10.07;;;;;;;-6.66;58.77;95711.44;5047372;28;20605;-75
2022/01/25 06:32:59;;;;;;;19.92;11.57;;;;;;;-6.90;58.97;95703.13;5037737;28;20466;-74
2022/01/25 06:35:28;;;;;;;22.02;10.80;;;;;;;-6.71;59.37;95703.19;5014111;28;20219;-74
2022/01/25 06:37:53;;;;;;;12.77;9.30;;;;;;;-6.65;59.69;95687.66;5037095;28;20262;-74
2022/01/25 06:40:19;;;;;;;14.40;9.77;;;;;;;-6.82;59.74;95713.00;5040414;28;20184;-74
2022/01/25 06:42:45;;;;;;;14.27;11.53;;;;;;;-6.80;60.05;95721.38;5015647;28;20291;-75
2022/01/25 06:45:17;;;;;;;16.17;12.30;;;;;;;-6.57;58.92;95716.16;5034922;28;20211;-74
2022/01/25 06:47:43;;;;;;;13.05;10.40;;;;;;;-6.30;57.99;95698.91;5024494;28;20179;-74
2022/01/25 06:50:09;;;;;;;12.18;10.98;;;;;;;-5.90;57.08;95709.03;5026865;28;20238;-74
2022/01/25 06:52:38;;;;;;;15.07;9.87;;;;;;;-5.41;55.62;95699.19;5006500;28;20204;-74
2022/01/25 06:55:09;;;;;;;10.07;9.10;;;;;;;-5.82;55.63;95704.44;5031675;28;20442;-75
2022/01/25 06:57:35;;;;;;;12.88;10.00;;;;;;;-5.24;55.82;95693.28;5032601;28;20184;-75
2022/01/25 07:00:03;;;;;;;14.48;10.75;;;;;;;-5.81;55.65;95693.34;5028026;28;20466;-75
2022/01/25 07:02:28;;;;;;;15.25;10.52;;;;;;;-5.28;55.02;95698.63;5022879;28;20195;-74
2022/01/25 07:04:54;;;;;;;13.30;8.93;;;;;;;-5.21;55.74;95702.53;5010452;28;20195;-74
2022/01/25 07:07:19;;;;;;;13.43;11.00;;;;;;;-5.40;55.84;95705.94;5027488;28;20209;-74
2022/01/25 07:09:45;;;;;;;8.80;7.77;;;;;;;-5.29;55.63;95705.44;5029257;28;20188;-74
2022/01/25 07:12:10;;;;;;;13.80;9.60;;;;;;;-5.34;56.22;95700.56;5010205;28;20544;-75
2022/01/25 07:14:36;;;;;;;18.07;11.77;;;;;;;-5.26;55.48;95707.03;5024466;28;20210;-75
2022/01/25 07:17:02;;;;;;;14.67;10.23;;;;;;;-5.00;54.43;95704.06;5023804;28;20204;-75
2022/01/25 07:19:27;;;;;;;15.07;10.50;;;;;;;-4.73;53.89;95690.88;5025666;28;20395;-75
2022/01/25 07:21:53;;;;;;;14.23;10.40;;;;;;;-5.02;54.71;95690.56;5010039;28;20196;-75
2022/01/25 07:24:18;;;;;;;16.10;10.57;;;;;;;-4.63;53.39;95681.88;5025110;28;21009;-74
2022/01/25 07:26:44;;;;;;;13.63;11.20;;;;;;;-5.16;54.38;95682.72;5026833;28;20223;-74
2022/01/25 07:29:10;;;;;;;8.88;7.88;;;;;;;-5.54;55.50;95683.63;5024054;28;20255;-74
2022/01/25 07:31:35;;;;;;;15.87;10.07;;;;;;;-4.92;54.50;95684.09;5012369;28;20239;-74
2022/01/25 07:34:01;;;;;;;18.37;11.90;;;;;;;-5.20;54.82;95681.22;5029314;28;20184;-75
2022/01/25 07:36:26;;;;;;;11.87;10.03;;;;;;;-5.73;56.10;95677.69;5027359;28;20188;-74
2022/01/25 07:38:52;;;;;;;15.07;9.40;;;;;;;-5.31;55.17;95664.72;5022834;28;20185;-74
2022/01/25 07:41:17;;;;;;;8.50;7.67;;;;;;;-4.91;54.97;95680.66;5025986;28;20188;-75
2022/01/25 07:43:43;;;;;;;12.23;8.70;;;;;;;-5.27;54.75;95682.41;5025262;28;20187;-75
2022/01/25 07:46:09;;;;;;;16.33;11.67;;;;;;;-4.37;52.42;95677.16;5028893;28;20247;-74
2022/01/25 07:48:35;;;;;;;12.83;9.90;;;;;;;-4.61;53.25;95689.44;5007649;28;20411;-75
2022/01/25 07:51:01;;;;;;;14.23;10.43;;;;;;;-4.46;53.14;95685.28;5026280;28;20448;-75
2022/01/25 07:53:26;;;;;;;13.57;10.10;;;;;;;-4.78;54.01;95682.59;5026852;28;20188;-74
2022/01/25 07:55:52;;;;;;;13.97;9.13;;;;;;;-4.53;53.45;95687.34;5008519;28;20642;-74
2022/01/25 07:58:17;;;;;;;17.23;11.17;;;;;;;-4.91;54.20;95687.50;5026563;28;20187;-75
2022/01/25 08:00:43;;;;;;;14.20;10.80;;;;;;;-4.56;53.55;95685.75;5007871;28;20188;-74
2022/01/25 08:03:09;;;;;;;10.20;9.10;;;;;;;-4.61;53.34;95686.88;5026753;28;20190;-75
2022/01/25 08:05:35;;;;;;;15.55;10.80;;;;;;;-4.64;53.86;95690.41;5028537;28;20187;-74
2022/01/25 08:08:01;;;;;;;14.80;10.20;;;;;;;-4.67;54.35;95690.56;5024407;28;20171;-74
2022/01/25 08:10:27;;;;;;;16.87;12.17;;;;;;;-4.80;54.62;95697.16;5007258;28;20198;-73
2022/01/25 08:12:53;;;;;;;17.30;11.40;;;;;;;-5.05;55.32;95689.88;5024211;28;20442;-74
2022/01/25 08:15:19;;;;;;;15.33;10.30;;;;;;;-5.06;55.41;95690.78;5025962;28;20195;-74
2022/01/25 08:17:45;;;;;;;14.70;10.70;;;;;;;-5.03;55.31;95694.00;5012316;28;20183;-74
2022/01/25 08:20:10;;;;;;;16.23;12.20;;;;;;;-4.59;54.52;95685.91;5024996;28;20180;-74
2022/01/25 08:22:36;;;;;;;18.70;12.73;;;;;;;-4.08;53.10;95677.41;5021966;28;20658;-74
2022/01/25 08:25:04;;;;;;;16.23;9.43;;;;;;;-4.36;53.26;95683.94;5021759;28;20184;-74
2022/01/25 08:27:30;;;;;;;14.90;11.75;;;;;;;-4.93;54.26;95674.81;5019601;28;20290;-74
2022/01/25 08:29:55;;;;;;;24.47;13.00;;;;;;;-4.62;54.23;95675.03;5025509;28;20196;-76
2022/01/25 08:32:21;;;;;;;16.97;12.23;;;;;;;-4.28;52.68;95684.38;5011259;28;20435;-75
2022/01/25 08:34:47;;;;;;;19.63;13.33;;;;;;;-3.85;51.92;95682.16;5025873;28;20187;-74
2022/01/25 08:37:15;;;;;;;15.83;10.27;;;;;;;-4.01;52.33;95674.44;5025044;28;20239;-75
2022/01/25 08:39:41;;;;;;;19.38;11.45;;;;;;;-4.13;52.35;95681.03;5026335;28;20196;-75
2022/01/25 08:42:08;;;;;;;14.17;10.20;;;;;;;-4.88;53.97;95666.09;5020621;28;20184;-74
2022/01/25 08:44:34;;;;;;;21.60;14.05;;;;;;;-4.28;53.08;95661.38;5022571;28;20198;-74
2022/01/25 08:47:00;;;;;;;18.67;12.75;;;;;;;-5.25;54.37;95657.69;5022380;28;20204;-74
2022/01/25 08:49:27;;;;;;;17.30;9.67;;;;;;;-5.02;54.62;95664.22;5027353;28;20188;-74
2022/01/25 08:51:53;;;;;;;18.45;13.23;;;;;;;-4.73;53.01;95650.03;5024781;28;20635;-75
2022/01/25 08:54:18;;;;;;;15.27;9.97;;;;;;;-4.79;53.83;95660.53;5030703;28;20179;-74
2022/01/25 08:56:44;;;;;;;16.23;8.37;;;;;;;-5.08;54.50;95655.13;5031002;28;20211;-74
2022/01/25 08:59:12;;;;;;;13.63;8.80;;;;;;;-4.26;52.94;95653.63;5028122;28;20664;-74
2022/01/25 09:01:39;;;;;;;13.88;8.55;;;;;;;-4.31;52.23;95648.75;5029011;28;20181;-75
2022/01/25 09:04:05;;;;;;;12.15;8.65;;;;;;;-3.51;50.39;95648.81;5005443;28;20211;-75
2022/01/25 09:06:34;;;;;;;13.67;10.47;;;;;;;-3.95;51.15;95640.91;5027272;28;20192;-75
2022/01/25 09:09:02;;;;;;;13.25;10.00;;;;;;;-3.88;51.33;95646.53;5010808;28;20264;-74
2022/01/25 09:11:28;;;;;;;14.98;9.98;;;;;;;-4.02;50.96;95637.03;5031821;28;20211;-76
2022/01/25 09:13:53;;;;;;;17.93;12.20;;;;;;;-3.47;50.05;95633.25;5022652;28;20189;-75
2022/01/25 09:16:19;;;;;;;15.00;10.57;;;;;;;-3.30;49.53;95618.69;5029102;28;20477;-74
2022/01/25 09:18:44;;;;;;;15.23;10.30;;;;;;;-3.08;48.66;95624.25;5006719;28;20194;-74
2022/01/25 09:21:10;;;;;;;12.43;9.57;;;;;;;-2.87;49.16;95616.25;5029242;28;20184;-75
2022/01/25 09:23:36;;;;;;;18.80;10.50;;;;;;;-2.29;47.25;95622.28;5024597;28;20212;-75
2022/01/25 09:26:02;;;;;;;11.93;8.93;;;;;;;-2.62;47.17;95623.34;5025556;28;20549;-75
2022/01/25 09:28:29;;;;;;;14.07;9.57;;;;;;;-2.85;47.86;95619.56;5028952;28;20212;-75
2022/01/25 09:30:55;;;;;;;13.85;9.25;;;;;;;-3.18;49.26;95626.50;5027150;28;20192;-74
2022/01/25 09:33:25;;;;;;;19.03;12.03;;;;;;;-3.35;49.66;95622.31;5026970;28;20239;-74
2022/01/25 09:35:51;;;;;;;20.73;10.40;;;;;;;-2.40;47.06;95613.47;5026430;28;20196;-75
2022/01/25 09:38:17;;;;;;;16.95;11.68;;;;;;;-2.45;47.57;95612.09;5010288;28;20334;-75
2022/01/25 09:40:43;;;;;;;15.83;9.97;;;;;;;-2.48;46.72;95596.94;5028291;28;20188;-75
2022/01/25 09:43:09;;;;;;;17.13;11.80;;;;;;;-3.51;49.62;95625.81;5027437;28;20184;-75
2022/01/25 09:45:36;;;;;;;19.93;11.13;;;;;;;-1.96;46.73;95614.28;5009597;28;20526;-75
2022/01/25 09:48:04;;;;;;;20.20;12.52;;;;;;;-2.13;46.87;95606.78;5027337;28;20250;-75
2022/01/25 09:50:30;;;;;;;20.33;12.82;;;;;;;-2.67;48.19;95603.13;5027715;28;20184;-75
2022/01/25 09:52:58;;;;;;;14.18;10.07;;;;;;;-2.22;47.27;95603.88;5027183;28;20208;-74
2022/01/25 09:55:26;;;;;;;23.73;12.13;;;;;;;-2.33;47.81;95590.88;5023795;28;20285;-74
2022/01/25 09:57:52;;;;;;;12.68;9.15;;;;;;;-1.74;45.55;95597.59;5025882;28;20188;-75
2022/01/25 10:00:21;;;;;;;13.02;11.60;;;;;;;-1.86;45.58;95599.16;5023974;28;20196;-75
2022/01/25 10:05:34;;;;;;;18.80;10.63;;;;;;;-1.62;46.56;95592.50;5027367;28;20196;-75
2022/01/25 10:08:07;;;;;;;16.58;9.65;;;;;;;-1.68;45.50;95577.50;5024588;28;20183;-74
2022/01/25 10:10:35;;;;;;;15.18;10.30;;;;;;;-1.60;46.19;95571.88;5023962;28;20195;-75
2022/01/25 10:13:20;;;;;;;18.92;12.75;;;;;;;-1.76;46.09;95569.47;5023396;28;20207;-80
2022/01/25 10:15:59;;;;;;;31.08;10.90;;;;;;;-1.25;45.51;95573.94;5025379;28;20289;-74
2022/01/25 10:18:41;;;;;;;13.05;10.10;;;;;;;-1.02;45.34;95562.19;5018639;28;20223;-75
2022/01/25 10:21:16;;;;;;;24.55;11.82;;;;;;;-1.35;45.87;95558.28;5027556;28;20251;-74
2022/01/25 10:24:07;;;;;;;14.18;10.30;;;;;;;-1.89;47.18;95563.44;5028355;28;20192;-74
2022/01/25 10:27:03;;;;;;;20.10;11.95;;;;;;;-1.68;47.97;95556.16;5026235;28;20243;-76
2022/01/25 10:29:34;;;;;;;18.08;12.02;;;;;;;-0.97;46.78;95562.69;5011876;28;20219;-74
2022/01/25 10:32:09;;;;;;;17.45;10.35;;;;;;;-1.29;46.18;95557.09;5024134;28;20201;-75
2022/01/25 10:34:38;;;;;;;19.63;11.35;;;;;;;-1.58;46.94;95552.88;5024037;28;20192;-75
2022/01/25 10:37:09;;;;;;;11.57;9.95;;;;;;;-1.56;47.25;95550.22;5002964;28;20188;-74
2022/01/25 10:39:39;;;;;;;18.25;11.30;;;;;;;-1.09;46.65;95553.22;4996862;28;20198;-74
2022/01/25 10:42:11;;;;;;;16.73;11.13;;;;;;;-1.59;46.82;95546.13;5022179;28;20211;-74
2022/01/25 10:45:04;;;;;;;19.85;14.13;;;;;;;-1.77;47.97;95548.09;5008811;28;20198;-74
2022/01/25 10:47:56;;;;;;;17.27;10.70;;;;;;;-2.22;48.05;95542.38;5020191;28;20211;-74
2022/01/25 10:50:27;;;;;;;19.65;8.80;;;;;;;-1.20;46.67;95547.03;5000945;28;20923;-74
2022/01/25 10:53:22;;;;;;;15.90;11.10;;;;;;;-0.99;47.05;95539.69;5024746;28;20214;-75
2022/01/25 10:55:51;;;;;;;21.30;11.70;;;;;;;-1.19;46.64;95532.47;5008292;28;20184;-74
2022/01/25 10:58:17;;;;;;;14.93;11.13;;;;;;;-1.51;47.76;95532.00;5025986;28;20266;-74
2022/01/25 11:00:49;;;;;;;19.70;12.13;;;;;;;-1.46;47.00;95520.50;5025705;28;20188;-75
2022/01/25 11:03:38;;;;;;;15.65;11.55;;;;;;;-2.37;49.04;95500.53;5026839;28;20438;-74
2022/01/25 11:06:19;;;;;;;13.35;10.35;;;;;;;-1.55;47.74;95513.41;5008583;28;20198;-74
2022/01/25 11:08:47;;;;;;;14.32;11.75;;;;;;;-1.49;48.22;95505.28;5026816;28;20180;-74
2022/01/25 11:11:27;;;;;;;17.25;11.68;;;;;;;-1.64;48.79;95508.84;5027241;28;20188;-74
2022/01/25 11:13:54;;;;;;;11.13;9.95;;;;;;;-1.99;48.64;95502.47;5007232;28;20185;-74
2022/01/25 11:16:21;;;;;;;18.58;12.35;;;;;;;-1.72;48.57;95508.53;5027862;28;20188;-74
2022/01/25 11:18:46;;;;;;;22.58;12.07;;;;;;;-1.20;47.88;95515.41;5007802;28;20196;-75
2022/01/25 11:21:13;;;;;;;16.10;11.20;;;;;;;-1.11;47.37;95491.69;5028121;28;20192;-75
2022/01/25 11:23:41;;;;;;;16.08;11.27;;;;;;;-0.77;46.72;95506.63;5027745;28;20185;-74
2022/01/25 11:26:10;;;;;;;14.68;11.32;;;;;;;-1.57;47.96;95497.28;5023140;28;20287;-76
2022/01/25 11:28:37;;;;;;;7.93;7.20;;;;;;;-0.68;46.25;95493.97;5024090;28;20298;-75
2022/01/25 11:31:07;;;;;;;19.25;12.07;;;;;;;-1.24;47.40;95483.16;5016185;28;20198;-74
2022/01/25 11:33:33;;;;;;;16.77;12.07;;;;;;;-1.51;47.55;95470.41;5025759;28;20212;-74
2022/01/25 11:36:05;;;;;;;24.60;13.48;;;;;;;-0.84;46.56;95486.44;5026856;28;20219;-75
2022/01/25 11:38:41;;;;;;;14.07;9.95;;;;;;;-1.38;48.16;95474.63;5026909;28;20302;-73
2022/01/25 11:41:15;;;;;;;19.40;10.98;;;;;;;-1.38;47.27;95469.50;5014579;28;20262;-75
2022/01/25 11:44:04;;;;;;;13.35;10.43;;;;;;;-0.62;46.04;95467.84;5013803;28;20187;-74
2022/01/25 11:46:29;;;;;;;16.75;12.48;;;;;;;-0.98;46.46;95464.28;5022675;28;20230;-75
2022/01/25 11:49:03;;;;;;;16.83;7.17;;;;;;;0.29;44.46;95465.81;5010219;28;20204;-74
2022/01/25 11:51:29;;;;;;;15.18;10.75;;;;;;;-0.56;45.31;95442.66;5025117;28;20327;-75
2022/01/25 11:53:54;;;;;;;20.30;12.27;;;;;;;0.63;44.34;95458.19;5007599;28;20185;-75
2022/01/25 11:56:20;;;;;;;16.80;12.87;;;;;;;1.05;43.21;95448.19;5016448;28;20525;-76
2022/01/25 11:58:57;;;;;;;17.80;11.77;;;;;;;0.35;44.35;95444.75;5023097;28;20845;-75
2022/01/25 12:01:25;;;;;;;14.48;11.95;;;;;;;-0.06;44.38;95441.66;5002316;28;20176;-76
2022/01/25 12:03:59;;;;;;;17.73;13.80;;;;;;;-0.48;45.20;95446.31;5025070;28;20187;-75
2022/01/25 12:06:32;;;;;;;25.38;12.95;;;;;;;-0.33;45.64;95449.56;5009769;28;20188;-75
2022/01/25 12:11:34;;;;;;;15.07;9.37;;;;;;;-0.46;45.81;95448.78;5029535;28;20180;-75
2022/01/25 12:14:22;;;;;;;19.73;12.73;;;;;;;-0.40;45.39;95428.63;5011230;28;20219;-75
2022/01/25 12:16:50;;;;;;;15.30;10.70;;;;;;;0.00;45.13;95430.13;5004177;28;20207;-75
2022/01/25 12:19:17;;;;;;;19.80;12.40;;;;;;;-0.13;45.23;95429.31;5026206;28;20223;-74
2022/01/25 12:21:50;;;;;;;12.43;9.13;;;;;;;-0.98;46.44;95418.03;5025242;28;20898;-76
2022/01/25 12:24:19;;;;;;;21.15;11.73;;;;;;;-0.58;46.76;95429.91;5022112;28;20190;-74
2022/01/25 12:27:12;;;;;;;19.45;11.35;;;;;;;-0.74;45.60;95427.56;5018825;28;20224;-75
2022/01/25 12:29:44;;;;;;;16.77;10.05;;;;;;;-1.54;47.22;95420.06;5003817;28;20200;-75
2022/01/25 12:32:20;;;;;;;23.23;12.68;;;;;;;-1.07;47.91;95417.84;5008582;28;20712;-75
2022/01/25 12:35:00;;;;;;;14.40;10.32;;;;;;;-1.01;47.22;95422.56;5018703;28;20281;-75
2022/01/25 12:37:54;;;;;;;16.52;12.32;;;;;;;-1.34;48.14;95412.81;5014038;28;20540;-75
2022/01/25 12:40:25;;;;;;;21.60;12.48;;;;;;;-1.43;48.76;95407.34;5005213;28;20896;-75
2022/01/25 12:42:58;;;;;;;14.85;10.57;;;;;;;-2.00;49.71;95407.69;5022937;28;20661;-75
2022/01/25 12:45:45;;;;;;;10.48;9.40;;;;;;;-1.21;47.45;95393.09;5042631;28;20192;-75
2022/01/25 12:48:13;;;;;;;21.20;14.13;;;;;;;-1.75;49.35;95391.53;5030603;28;20214;-75
2022/01/25 12:50:41;;;;;;;22.13;12.30;;;;;;;-2.16;50.23;95398.41;5014689;28;20971;-75
2022/01/25 12:53:11;;;;;;;17.63;12.85;;;;;;;-2.22;50.72;95398.81;5023871;28;20213;-74
2022/01/25 12:55:41;;;;;;;14.35;9.30;;;;;;;-1.92;49.71;95384.94;5036301;28;20197;-75
2022/01/25 12:58:07;;;;;;;17.52;10.93;;;;;;;-2.14;50.56;95385.50;4988935;28;20173;-74
2022/01/25 13:00:37;;;;;;;20.20;11.67;;;;;;;-1.58;49.33;95395.53;5011409;28;20662;-73
2022/01/25 13:03:17;;;;;;;18.63;11.68;;;;;;;-2.41;51.15;95382.94;5025875;28;20446;-74
2022/01/25 13:05:47;;;;;;;18.38;11.88;;;;;;;-2.20;50.70;95386.72;5019800;28;20260;-74
2022/01/25 13:08:21;;;;;;;16.27;11.43;;;;;;;-2.19;50.99;95374.72;5008098;28;20189;-73